createdAt,value
2018-12-31T00:00:35.739Z,215.1
2018-12-31T00:01:35.125Z,215
2018-12-31T00:02:36.016Z,215
2018-12-31T00:03:34.722Z,215.3
2018-12-31T00:04:35.155Z,215.1
2018-12-31T00:05:35.012Z,215.3
2018-12-31T00:06:34.978Z,215.4
2018-12-31T00:07:35.052Z,215.2
2018-12-31T00:08:34.936Z,215.1
2018-12-31T00:09:35.058Z,215.4
2018-12-31T00:10:34.724Z,215.2
2018-12-31T00:12:39.538Z,215
2018-12-31T00:13:39.337Z,215
2018-12-31T00:14:39.190Z,215
2018-12-31T00:15:39.579Z,215
2018-12-31T00:16:39.244Z,215
2018-12-31T00:17:39.630Z,215
2018-12-31T00:18:40.675Z,215
2018-12-31T00:19:38.971Z,215.3
2018-12-31T00:20:39.557Z,215.1
2018-12-31T00:21:39.557Z,215.3
2018-12-31T00:22:39.221Z,215.2
2018-12-31T00:23:42.443Z,215.1
2018-12-31T00:24:39.272Z,215
2018-12-31T00:25:40.240Z,215
2018-12-31T00:26:38.210Z,215
2018-12-31T00:27:38.330Z,215
2018-12-31T00:28:38.285Z,223.6
2018-12-31T00:29:38.279Z,226.4
2018-12-31T00:30:38.375Z,220.3
2018-12-31T00:31:38.337Z,217.5
2018-12-31T00:32:38.240Z,216.1
2018-12-31T00:33:38.381Z,215.5
2018-12-31T00:34:38.363Z,215.2
2018-12-31T00:35:38.410Z,215.1
2018-12-31T00:36:38.362Z,215.1
2018-12-31T00:37:38.382Z,215
2018-12-31T00:38:38.342Z,215
2018-12-31T00:39:38.324Z,215
2018-12-31T00:40:38.420Z,215
2018-12-31T00:41:38.326Z,215
2018-12-31T00:42:48.231Z,215
2018-12-31T00:43:38.322Z,215.8
2018-12-31T00:44:38.353Z,215.4
2018-12-31T00:45:38.324Z,215.2
2018-12-31T00:46:38.427Z,215.1
2018-12-31T00:47:38.348Z,215
2018-12-31T00:48:38.343Z,215
2018-12-31T00:49:38.316Z,215
2018-12-31T00:50:38.311Z,215
2018-12-31T00:51:38.428Z,215
2018-12-31T00:52:38.388Z,215
2018-12-31T00:53:38.278Z,215
2018-12-31T00:54:38.344Z,215
2018-12-31T00:55:38.519Z,215
2018-12-31T00:56:38.391Z,215
2018-12-31T00:57:38.283Z,215
2018-12-31T00:58:38.340Z,215
2018-12-31T00:59:38.301Z,215
2018-12-31T01:00:38.364Z,215
2018-12-31T01:01:38.450Z,215
2018-12-31T01:02:38.428Z,215
2018-12-31T01:03:38.341Z,215
2018-12-31T01:04:38.315Z,215
2018-12-31T01:05:38.315Z,215
2018-12-31T01:06:38.492Z,215
2018-12-31T01:07:38.468Z,215
2018-12-31T01:08:38.330Z,215
2018-12-31T01:09:38.330Z,215
2018-12-31T01:10:38.285Z,215
2018-12-31T01:11:38.248Z,215
2018-12-31T01:12:38.285Z,215
2018-12-31T01:13:38.374Z,215
2018-12-31T01:14:38.474Z,215
2018-12-31T01:15:38.340Z,215
2018-12-31T01:16:38.263Z,215
2018-12-31T01:17:40.009Z,203.7
2018-12-31T01:18:39.790Z,185.2
2018-12-31T01:19:39.428Z,176.8
2018-12-31T01:20:38.338Z,173.1
2018-12-31T01:21:38.243Z,171.4
2018-12-31T01:22:38.400Z,170.7
2018-12-31T01:23:38.306Z,170.3
2018-12-31T01:24:38.318Z,170.1
2018-12-31T01:25:38.330Z,170.1
2018-12-31T01:26:38.254Z,170
2018-12-31T01:27:38.578Z,170
2018-12-31T01:28:38.379Z,170
2018-12-31T01:29:39.002Z,170
2018-12-31T01:30:38.288Z,170
2018-12-31T01:31:38.262Z,170
2018-12-31T01:32:38.245Z,170
2018-12-31T01:33:38.256Z,170
2018-12-31T01:34:38.318Z,170
2018-12-31T01:35:38.304Z,170
2018-12-31T01:36:40.481Z,170
2018-12-31T01:37:38.236Z,170
2018-12-31T01:38:39.637Z,170
2018-12-31T01:39:38.650Z,170
2018-12-31T01:40:38.448Z,170
2018-12-31T01:41:38.334Z,170
2018-12-31T01:42:38.427Z,170
2018-12-31T01:43:38.531Z,170
2018-12-31T01:44:38.348Z,170
2018-12-31T01:45:38.311Z,170
2018-12-31T01:46:38.414Z,170
2018-12-31T01:47:38.267Z,170
2018-12-31T01:48:39.714Z,180.8
2018-12-31T01:49:38.540Z,187.1
2018-12-31T01:50:38.338Z,190
2018-12-31T01:51:38.343Z,191.3
2018-12-31T01:52:38.260Z,192
2018-12-31T01:53:38.263Z,192.2
2018-12-31T01:54:38.208Z,192.4
2018-12-31T01:55:38.372Z,192.4
2018-12-31T01:56:38.293Z,192.5
2018-12-31T01:57:38.284Z,192.5
2018-12-31T01:58:38.414Z,192.5
2018-12-31T01:59:38.305Z,192.5
2018-12-31T02:00:39.189Z,192.5
2018-12-31T02:01:38.327Z,192.5
2018-12-31T02:02:38.310Z,192.5
2018-12-31T02:03:38.380Z,192.5
2018-12-31T02:04:38.211Z,192.5
2018-12-31T02:05:38.280Z,192.5
2018-12-31T02:06:38.264Z,192.5
2018-12-31T02:07:38.358Z,192.5
2018-12-31T02:08:38.251Z,192.5
2018-12-31T02:09:39.863Z,192.5
2018-12-31T02:10:38.212Z,192.5
2018-12-31T02:11:40.344Z,192.5
2018-12-31T02:12:38.380Z,192.5
2018-12-31T02:13:38.279Z,192.5
2018-12-31T02:14:38.431Z,192.5
2018-12-31T02:15:38.289Z,192.5
2018-12-31T02:16:38.225Z,192.5
2018-12-31T02:17:38.322Z,192.5
2018-12-31T02:18:38.331Z,192.5
2018-12-31T02:19:38.303Z,192.5
2018-12-31T02:20:38.283Z,192.5
2018-12-31T02:21:38.210Z,192.5
2018-12-31T02:22:38.340Z,192.5
2018-12-31T02:23:38.357Z,192.5
2018-12-31T02:24:38.249Z,192.5
2018-12-31T02:25:38.227Z,192.5
2018-12-31T02:26:38.257Z,192.5
2018-12-31T02:27:38.291Z,192.5
2018-12-31T02:28:38.362Z,192.5
2018-12-31T02:29:38.279Z,192.5
2018-12-31T02:30:38.270Z,192.5
2018-12-31T02:31:38.362Z,192.5
2018-12-31T02:32:38.264Z,192.5
2018-12-31T02:33:38.269Z,192.5
2018-12-31T02:34:38.278Z,192.5
2018-12-31T02:35:38.323Z,192.5
2018-12-31T02:36:38.277Z,192.5
2018-12-31T02:37:38.233Z,192.5
2018-12-31T02:38:38.324Z,192.5
2018-12-31T02:39:38.385Z,192.5
2018-12-31T02:40:38.255Z,192.5
2018-12-31T02:41:38.313Z,192.5
2018-12-31T02:42:38.305Z,192.5
2018-12-31T02:43:58.136Z,192.5
2018-12-31T02:44:41.830Z,192.5
2018-12-31T02:45:38.493Z,192.5
2018-12-31T02:46:38.243Z,192.5
2018-12-31T02:47:42.475Z,192.5
2018-12-31T02:48:38.264Z,192.5
2018-12-31T02:49:38.292Z,192.5
2018-12-31T02:50:38.364Z,192.5
2018-12-31T02:51:38.250Z,192.5
2018-12-31T02:52:38.368Z,192.5
2018-12-31T02:53:38.255Z,192.5
2018-12-31T02:54:38.308Z,192.5
2018-12-31T02:55:38.294Z,192.5
2018-12-31T02:56:54.398Z,192.5
2018-12-31T02:57:38.227Z,192.5
2018-12-31T02:58:38.279Z,192.5
2018-12-31T02:59:38.975Z,192.5
2018-12-31T03:00:38.276Z,192.5
2018-12-31T03:01:38.254Z,192.5
2018-12-31T03:02:38.258Z,192.5
2018-12-31T03:03:38.271Z,192.5
2018-12-31T03:04:38.280Z,192.5
2018-12-31T03:05:40.217Z,192.5
2018-12-31T03:06:38.335Z,192.5
2018-12-31T03:07:38.310Z,192.5
2018-12-31T03:08:38.274Z,192.5
2018-12-31T03:09:38.240Z,192.5
2018-12-31T03:10:38.219Z,192.5
2018-12-31T03:11:38.331Z,192.5
2018-12-31T03:12:38.340Z,192.5
2018-12-31T03:13:38.258Z,192.5
2018-12-31T03:14:38.313Z,192.5
2018-12-31T03:15:38.244Z,192.5
2018-12-31T03:16:38.260Z,192.5
2018-12-31T03:17:38.334Z,192.5
2018-12-31T03:18:38.284Z,192.5
2018-12-31T03:19:38.274Z,192.5
2018-12-31T03:20:38.383Z,192.5
2018-12-31T03:21:38.215Z,192.5
2018-12-31T03:22:38.293Z,192.5
2018-12-31T03:23:38.290Z,192.5
2018-12-31T03:24:38.242Z,192.5
2018-12-31T03:25:38.367Z,192.5
2018-12-31T03:26:38.231Z,192.5
2018-12-31T03:27:38.257Z,192.5
2018-12-31T03:28:38.250Z,192.5
2018-12-31T03:29:38.304Z,192.5
2018-12-31T03:30:38.348Z,192.5
2018-12-31T03:31:38.204Z,192.5
2018-12-31T03:32:38.296Z,192.5
2018-12-31T03:33:38.293Z,192.5
2018-12-31T03:34:38.326Z,192.5
2018-12-31T03:35:38.249Z,192.5
2018-12-31T03:36:38.229Z,192.5
2018-12-31T03:37:38.286Z,192.5
2018-12-31T03:38:38.262Z,192.5
2018-12-31T03:39:38.315Z,192.5
2018-12-31T03:40:38.293Z,192.5
2018-12-31T03:41:38.330Z,192.5
2018-12-31T03:42:38.207Z,192.5
2018-12-31T03:43:38.309Z,192.5
2018-12-31T03:44:48.224Z,192.5
2018-12-31T03:45:38.235Z,192.5
2018-12-31T03:46:38.366Z,192.5
2018-12-31T03:47:38.244Z,192.5
2018-12-31T03:48:38.169Z,192.5
2018-12-31T03:49:38.255Z,192.5
2018-12-31T03:50:38.307Z,192.5
2018-12-31T03:51:38.325Z,192.5
2018-12-31T03:52:38.363Z,192.5
2018-12-31T03:53:38.166Z,192.5
2018-12-31T03:54:38.274Z,192.5
2018-12-31T03:55:38.325Z,192.5
2018-12-31T03:56:38.262Z,192.5
2018-12-31T03:57:38.315Z,192.5
2018-12-31T03:58:38.231Z,192.5
2018-12-31T03:59:38.207Z,192.5
2018-12-31T04:00:38.228Z,192.5
2018-12-31T04:01:38.326Z,192.5
2018-12-31T04:02:38.337Z,192.5
2018-12-31T04:03:38.312Z,192.5
2018-12-31T04:04:38.216Z,192.5
2018-12-31T04:05:38.244Z,192.5
2018-12-31T04:06:38.287Z,192.5
2018-12-31T04:07:38.253Z,192.5
2018-12-31T04:08:38.319Z,192.5
2018-12-31T04:09:38.710Z,192.5
2018-12-31T04:10:38.231Z,192.5
2018-12-31T04:11:38.273Z,192.5
2018-12-31T04:12:38.401Z,192.5
2018-12-31T04:13:38.326Z,192.5
2018-12-31T04:14:38.219Z,192.5
2018-12-31T04:15:38.251Z,192.5
2018-12-31T04:16:38.379Z,192.5
2018-12-31T04:17:41.594Z,192.5
2018-12-31T04:18:38.240Z,192.5
2018-12-31T04:19:38.299Z,192.5
2018-12-31T04:20:38.299Z,192.5
2018-12-31T04:21:38.191Z,192.5
2018-12-31T04:22:38.280Z,192.5
2018-12-31T04:23:38.219Z,192.5
2018-12-31T04:24:38.237Z,192.5
2018-12-31T04:25:38.268Z,192.5
2018-12-31T04:26:38.183Z,192.5
2018-12-31T04:27:38.192Z,192.5
2018-12-31T04:28:38.305Z,192.5
2018-12-31T04:29:38.297Z,192.5
2018-12-31T04:30:38.314Z,192.5
2018-12-31T04:31:38.189Z,192.5
2018-12-31T04:32:38.315Z,192.5
2018-12-31T04:33:38.244Z,192.5
2018-12-31T04:34:38.278Z,192.5
2018-12-31T04:35:38.279Z,192.5
2018-12-31T04:36:38.241Z,192.5
2018-12-31T04:37:38.179Z,192.5
2018-12-31T04:38:38.303Z,192.5
2018-12-31T04:39:38.241Z,192.5
2018-12-31T04:40:38.294Z,192.5
2018-12-31T04:41:38.205Z,192.5
2018-12-31T04:42:38.211Z,192.5
2018-12-31T04:43:38.241Z,192.5
2018-12-31T04:44:38.271Z,192.5
2018-12-31T04:45:38.326Z,192.5
2018-12-31T04:46:38.205Z,192.5
2018-12-31T04:47:38.310Z,192.5
2018-12-31T04:48:38.173Z,192.5
2018-12-31T04:49:38.198Z,192.5
2018-12-31T04:50:38.228Z,192.5
2018-12-31T04:51:38.275Z,192.5
2018-12-31T04:52:38.302Z,192.5
2018-12-31T04:53:48.054Z,192.5
2018-12-31T04:54:38.236Z,192.5
2018-12-31T04:55:46.772Z,192.5
2018-12-31T04:56:38.234Z,192.5
2018-12-31T04:57:38.358Z,192.5
2018-12-31T04:58:38.270Z,192.5
2018-12-31T04:59:38.180Z,192.5
2018-12-31T05:00:38.286Z,192.5
2018-12-31T05:01:38.229Z,192.5
2018-12-31T05:02:38.249Z,192.5
2018-12-31T05:03:38.289Z,192.5
2018-12-31T05:04:38.171Z,192.5
2018-12-31T05:05:38.257Z,192.5
2018-12-31T05:06:38.312Z,192.5
2018-12-31T05:07:38.332Z,192.5
2018-12-31T05:08:38.260Z,192.5
2018-12-31T05:09:38.234Z,192.5
2018-12-31T05:10:38.133Z,192.5
2018-12-31T05:11:38.197Z,192.5
2018-12-31T05:12:38.260Z,192.5
2018-12-31T05:13:38.292Z,192.5
2018-12-31T05:14:38.303Z,192.5
2018-12-31T05:15:38.125Z,192.5
2018-12-31T05:16:38.224Z,192.5
2018-12-31T05:17:38.230Z,192.5
2018-12-31T05:18:38.217Z,192.5
2018-12-31T05:19:38.262Z,192.5
2018-12-31T05:20:38.218Z,192.5
2018-12-31T05:21:38.178Z,192.5
2018-12-31T05:22:38.213Z,192.5
2018-12-31T05:23:38.216Z,192.5
2018-12-31T05:24:38.186Z,192.5
2018-12-31T05:25:38.298Z,192.5
2018-12-31T05:26:38.168Z,192.5
2018-12-31T05:27:38.191Z,192.5
2018-12-31T05:28:38.199Z,192.5
2018-12-31T05:29:38.204Z,192.5
2018-12-31T05:30:38.244Z,192.5
2018-12-31T05:31:38.186Z,192.5
2018-12-31T05:32:38.186Z,192.5
2018-12-31T05:33:38.198Z,192.5
2018-12-31T05:34:38.224Z,192.5
2018-12-31T05:35:38.288Z,192.5
2018-12-31T05:36:38.206Z,192.5
2018-12-31T05:37:38.241Z,192.5
2018-12-31T05:38:38.227Z,192.5
2018-12-31T05:39:38.187Z,192.5
2018-12-31T05:40:38.221Z,192.5
2018-12-31T05:41:38.284Z,192.5
2018-12-31T05:42:38.142Z,192.5
2018-12-31T05:43:38.272Z,192.5
2018-12-31T05:44:38.224Z,192.5
2018-12-31T05:45:38.196Z,192.5
2018-12-31T05:46:38.208Z,192.5
2018-12-31T05:47:38.263Z,192.5
2018-12-31T05:48:38.160Z,192.5
2018-12-31T05:49:38.241Z,192.5
2018-12-31T05:50:38.243Z,192.5
2018-12-31T05:51:38.205Z,192.5
2018-12-31T05:52:38.243Z,192.5
2018-12-31T05:53:38.149Z,192.5
2018-12-31T05:54:38.097Z,192.5
2018-12-31T05:55:38.311Z,192.5
2018-12-31T05:56:38.236Z,192.5
2018-12-31T05:57:38.216Z,192.5
2018-12-31T05:58:38.227Z,192.5
2018-12-31T05:59:38.161Z,192.5
2018-12-31T06:00:38.283Z,192.5
2018-12-31T06:01:38.188Z,192.5
2018-12-31T06:02:38.161Z,192.5
2018-12-31T06:03:38.332Z,192.5
2018-12-31T06:04:38.149Z,192.5
2018-12-31T06:05:38.266Z,192.5
2018-12-31T06:06:38.201Z,192.5
2018-12-31T06:07:38.203Z,192.5
2018-12-31T06:08:38.197Z,192.5
2018-12-31T06:09:38.172Z,192.5
2018-12-31T06:10:38.214Z,192.5
2018-12-31T06:11:38.201Z,192.5
2018-12-31T06:12:38.159Z,192.5
2018-12-31T06:13:38.177Z,192.5
2018-12-31T06:14:38.224Z,192.5
2018-12-31T06:15:38.215Z,192.5
2018-12-31T06:16:38.184Z,192.5
2018-12-31T06:17:38.185Z,192.5
2018-12-31T06:18:38.280Z,192.5
2018-12-31T06:19:38.189Z,192.5
2018-12-31T06:20:38.230Z,192.5
2018-12-31T06:21:38.134Z,192.5
2018-12-31T06:22:38.165Z,192.5
2018-12-31T06:23:38.268Z,192.5
2018-12-31T06:24:38.203Z,192.5
2018-12-31T06:25:38.166Z,192.5
2018-12-31T06:26:38.221Z,192.5
2018-12-31T06:27:38.211Z,192.5
2018-12-31T06:28:38.180Z,192.5
2018-12-31T06:29:38.258Z,192.5
2018-12-31T06:30:38.172Z,192.5
2018-12-31T06:31:38.125Z,192.5
2018-12-31T06:32:38.170Z,192.5
2018-12-31T06:33:38.265Z,192.5
2018-12-31T06:34:38.208Z,192.5
2018-12-31T06:35:38.233Z,192.5
2018-12-31T06:36:38.209Z,192.5
2018-12-31T06:37:38.132Z,192.5
2018-12-31T06:38:38.218Z,192.5
2018-12-31T06:39:38.136Z,192.5
2018-12-31T06:40:38.207Z,192.5
2018-12-31T06:41:38.213Z,192.5
2018-12-31T06:42:38.117Z,192.5
2018-12-31T06:43:38.197Z,192.5
2018-12-31T06:44:38.281Z,192.5
2018-12-31T06:45:38.222Z,192.5
2018-12-31T06:46:38.187Z,192.5
2018-12-31T06:47:38.167Z,192.5
2018-12-31T06:48:38.131Z,192.5
2018-12-31T06:49:38.267Z,192.5
2018-12-31T06:50:38.246Z,192.5
2018-12-31T06:51:38.158Z,192.5
2018-12-31T06:52:38.176Z,192.5
2018-12-31T06:53:38.195Z,192.5
2018-12-31T06:54:38.174Z,192.5
2018-12-31T06:55:38.236Z,192.5
2018-12-31T06:56:38.193Z,192.5
2018-12-31T06:57:38.230Z,192.5
2018-12-31T06:58:38.190Z,192.5
2018-12-31T06:59:38.084Z,192.5
2018-12-31T07:00:38.268Z,192.5
2018-12-31T07:01:38.275Z,192.5
2018-12-31T07:02:38.143Z,192.5
2018-12-31T07:03:38.172Z,192.5
2018-12-31T07:04:38.165Z,192.5
2018-12-31T07:05:38.188Z,192.5
2018-12-31T07:06:38.169Z,192.5
2018-12-31T07:07:38.176Z,192.5
2018-12-31T07:08:38.219Z,192.5
2018-12-31T07:09:38.173Z,192.5
2018-12-31T07:10:38.206Z,192.5
2018-12-31T07:11:38.250Z,192.5
2018-12-31T07:12:38.210Z,192.5
2018-12-31T07:13:38.171Z,192.5
2018-12-31T07:14:38.220Z,192.5
2018-12-31T07:15:38.175Z,192.5
2018-12-31T07:16:38.195Z,192.5
2018-12-31T07:17:38.152Z,192.5
2018-12-31T07:18:38.172Z,192.5
2018-12-31T07:19:38.160Z,192.5
2018-12-31T07:20:38.187Z,192.5
2018-12-31T07:21:38.127Z,192.5
2018-12-31T07:22:38.159Z,192.5
2018-12-31T07:23:38.148Z,192.5
2018-12-31T07:24:38.188Z,192.5
2018-12-31T07:25:38.210Z,192.5
2018-12-31T07:26:38.076Z,192.5
2018-12-31T07:27:38.255Z,192.5
2018-12-31T07:28:38.134Z,192.5
2018-12-31T07:29:38.146Z,192.5
2018-12-31T07:30:38.177Z,192.5
2018-12-31T07:31:38.179Z,192.5
2018-12-31T07:32:38.220Z,192.5
2018-12-31T07:33:38.149Z,192.5
2018-12-31T07:34:38.179Z,192.5
2018-12-31T07:35:38.211Z,192.5
2018-12-31T07:36:38.173Z,192.5
2018-12-31T07:37:38.158Z,192.5
2018-12-31T07:38:38.168Z,192.5
2018-12-31T07:39:38.153Z,192.5
2018-12-31T07:40:38.214Z,192.5
2018-12-31T07:41:38.129Z,192.5
2018-12-31T07:42:38.077Z,192.5
2018-12-31T07:43:38.079Z,192.5
2018-12-31T07:44:38.158Z,192.5
2018-12-31T07:45:38.214Z,192.5
2018-12-31T07:46:38.170Z,192.5
2018-12-31T07:47:38.153Z,192.5
2018-12-31T07:48:38.108Z,192.5
2018-12-31T07:49:38.200Z,192.5
2018-12-31T07:50:38.134Z,192.5
2018-12-31T07:51:38.179Z,192.5
2018-12-31T07:52:38.205Z,192.5
2018-12-31T07:53:38.175Z,192.5
2018-12-31T07:54:38.188Z,192.5
2018-12-31T07:55:38.167Z,192.5
2018-12-31T07:56:38.252Z,192.5
2018-12-31T07:57:38.043Z,192.5
2018-12-31T07:58:38.148Z,192.5
2018-12-31T07:59:38.126Z,192.5
2018-12-31T08:00:38.168Z,192.5
2018-12-31T08:01:38.201Z,192.5
2018-12-31T08:02:38.146Z,192.5
2018-12-31T08:03:38.126Z,192.5
2018-12-31T08:04:38.115Z,192.5
2018-12-31T08:05:38.163Z,192.5
2018-12-31T08:06:38.212Z,192.5
2018-12-31T08:07:38.135Z,192.5
2018-12-31T08:08:38.149Z,192.5
2018-12-31T08:09:38.178Z,192.5
2018-12-31T08:10:38.068Z,192.5
2018-12-31T08:11:38.226Z,192.5
2018-12-31T08:12:38.085Z,192.5
2018-12-31T08:13:38.172Z,192.5
2018-12-31T08:14:38.191Z,192.5
2018-12-31T08:15:38.165Z,192.5
2018-12-31T08:16:38.131Z,192.5
2018-12-31T08:17:38.104Z,192.5
2018-12-31T08:18:38.127Z,192.5
2018-12-31T08:19:38.226Z,192.5
2018-12-31T08:20:38.101Z,192.5
2018-12-31T08:21:38.104Z,192.5
2018-12-31T08:22:38.130Z,192.5
2018-12-31T08:23:38.136Z,192.5
2018-12-31T08:24:38.257Z,192.5
2018-12-31T08:25:38.138Z,192.5
2018-12-31T08:26:38.150Z,192.5
2018-12-31T08:27:38.089Z,192.5
2018-12-31T08:28:38.131Z,192.5
2018-12-31T08:29:38.135Z,192.5
2018-12-31T08:30:38.118Z,192.5
2018-12-31T08:31:38.155Z,192.5
2018-12-31T08:32:38.116Z,192.5
2018-12-31T08:33:38.135Z,192.5
2018-12-31T08:34:38.153Z,192.5
2018-12-31T08:35:39.005Z,192.5
2018-12-31T08:36:38.324Z,192.5
2018-12-31T08:37:38.853Z,192.5
2018-12-31T08:38:38.568Z,192.5
2018-12-31T08:39:38.330Z,192.5
2018-12-31T08:40:38.070Z,192.5
2018-12-31T08:41:38.480Z,192.5
2018-12-31T08:42:38.411Z,192.5
2018-12-31T08:43:38.162Z,192.5
2018-12-31T08:44:42.219Z,192.5
2018-12-31T08:45:38.345Z,192.5
2018-12-31T08:46:38.224Z,192.5
2018-12-31T08:47:42.579Z,192.5
2018-12-31T08:48:38.997Z,192.5
2018-12-31T08:49:38.329Z,192.5
2018-12-31T08:50:38.699Z,192.5
2018-12-31T08:51:38.753Z,192.5
2018-12-31T08:52:38.734Z,192.5
2018-12-31T08:53:39.711Z,192.5
2018-12-31T08:54:40.713Z,192.5
2018-12-31T08:55:38.173Z,192.5
2018-12-31T08:56:39.024Z,192.5
2018-12-31T08:57:39.970Z,192.5
2018-12-31T08:58:42.183Z,192.5
2018-12-31T08:59:38.146Z,192.5
2018-12-31T09:00:38.146Z,192.5
2018-12-31T09:01:38.216Z,192.5
2018-12-31T09:02:38.116Z,192.5
2018-12-31T09:03:38.229Z,192.5
2018-12-31T09:04:38.051Z,192.5
2018-12-31T09:05:38.141Z,192.5
2018-12-31T09:06:38.113Z,192.5
2018-12-31T09:07:38.187Z,192.5
2018-12-31T09:08:38.436Z,192.5
2018-12-31T09:09:38.128Z,192.5
2018-12-31T09:10:38.150Z,192.5
2018-12-31T09:11:38.121Z,192.5
2018-12-31T09:12:38.198Z,192.5
2018-12-31T09:13:38.038Z,192.5
2018-12-31T09:14:38.186Z,192.5
2018-12-31T09:15:38.094Z,192.5
2018-12-31T09:16:38.106Z,192.5
2018-12-31T09:17:38.099Z,192.5
2018-12-31T09:18:38.134Z,192.5
2018-12-31T09:19:38.216Z,192.5
2018-12-31T09:20:38.066Z,192.5
2018-12-31T09:21:38.066Z,192.5
2018-12-31T09:22:40.218Z,192.5
2018-12-31T09:23:38.233Z,192.5
2018-12-31T09:24:45.761Z,192.5
2018-12-31T09:25:38.103Z,192.5
2018-12-31T09:26:38.056Z,192.5
2018-12-31T09:27:38.099Z,192.5
2018-12-31T09:28:38.225Z,192.5
2018-12-31T09:29:38.122Z,192.5
2018-12-31T09:30:38.079Z,192.5
2018-12-31T09:31:38.044Z,192.5
2018-12-31T09:32:38.109Z,192.5
2018-12-31T09:33:38.180Z,192.5
2018-12-31T09:34:38.105Z,192.5
2018-12-31T09:35:38.099Z,192.5
2018-12-31T09:36:38.996Z,192.5
2018-12-31T09:37:47.950Z,192.5
2018-12-31T09:38:38.111Z,192.5
2018-12-31T09:39:38.165Z,192.5
2018-12-31T09:40:38.214Z,192.5
2018-12-31T09:41:38.176Z,192.5
2018-12-31T09:42:38.038Z,192.5
2018-12-31T09:43:38.125Z,192.5
2018-12-31T09:44:38.106Z,192.5
2018-12-31T09:45:38.180Z,192.5
2018-12-31T09:46:38.083Z,192.5
2018-12-31T09:47:38.093Z,192.5
2018-12-31T09:48:38.693Z,192.5
2018-12-31T09:49:38.197Z,192.5
2018-12-31T09:50:38.095Z,192.5
2018-12-31T09:51:38.118Z,192.5
2018-12-31T09:52:38.109Z,192.5
2018-12-31T09:53:38.141Z,192.5
2018-12-31T09:54:38.104Z,192.5
2018-12-31T09:55:38.114Z,192.5
2018-12-31T09:56:38.124Z,192.5
2018-12-31T09:57:38.172Z,192.5
2018-12-31T09:58:39.854Z,192.5
2018-12-31T09:59:38.061Z,192.5
2018-12-31T10:00:38.166Z,192.5
2018-12-31T10:01:38.162Z,192.5
2018-12-31T10:02:38.375Z,192.5
2018-12-31T10:03:38.175Z,192.5
2018-12-31T10:04:38.101Z,192.5
2018-12-31T10:05:38.187Z,192.5
2018-12-31T10:06:38.111Z,192.5
2018-12-31T10:07:42.259Z,192.5
2018-12-31T10:08:38.099Z,192.5
2018-12-31T10:09:40.368Z,192.5
2018-12-31T10:10:40.548Z,192.5
2018-12-31T10:11:38.174Z,192.5
2018-12-31T10:12:38.212Z,192.5
2018-12-31T10:13:38.056Z,192.5
2018-12-31T10:14:38.076Z,192.5
2018-12-31T10:15:38.054Z,192.5
2018-12-31T10:16:38.046Z,192.5
2018-12-31T10:17:39.234Z,192.5
2018-12-31T10:18:38.136Z,192.5
2018-12-31T10:19:38.095Z,192.5
2018-12-31T10:20:38.072Z,192.5
2018-12-31T10:21:44.495Z,192.5
2018-12-31T10:22:38.107Z,192.5
2018-12-31T10:23:38.163Z,192.5
2018-12-31T10:24:38.207Z,192.5
2018-12-31T10:25:38.110Z,192.5
2018-12-31T10:26:38.042Z,192.5
2018-12-31T10:27:38.100Z,192.5
2018-12-31T10:28:38.149Z,192.5
2018-12-31T10:29:39.863Z,192.5
2018-12-31T10:30:38.075Z,192.5
2018-12-31T10:31:38.332Z,192.5
2018-12-31T10:32:38.036Z,192.5
2018-12-31T10:33:38.083Z,192.5
2018-12-31T10:34:38.074Z,192.5
2018-12-31T10:35:38.085Z,192.5
2018-12-31T10:36:38.925Z,192.5
2018-12-31T10:37:38.032Z,192.5
2018-12-31T10:38:38.120Z,192.5
2018-12-31T10:39:38.081Z,192.5
2018-12-31T10:40:38.133Z,192.5
2018-12-31T10:41:38.116Z,192.5
2018-12-31T10:42:38.022Z,192.5
2018-12-31T10:43:38.093Z,192.5
2018-12-31T10:44:38.151Z,192.5
2018-12-31T10:45:38.070Z,192.5
2018-12-31T10:46:38.087Z,192.5
2018-12-31T10:47:38.154Z,192.5
2018-12-31T10:48:38.100Z,192.5
2018-12-31T10:49:38.105Z,192.5
2018-12-31T10:50:38.201Z,192.5
2018-12-31T10:51:38.076Z,192.5
2018-12-31T10:52:38.104Z,192.5
2018-12-31T10:53:38.088Z,192.5
2018-12-31T10:54:38.087Z,192.5
2018-12-31T10:55:38.175Z,192.5
2018-12-31T10:56:38.059Z,192.5
2018-12-31T10:57:38.165Z,192.5
2018-12-31T10:58:38.012Z,192.5
2018-12-31T10:59:38.128Z,192.5
2018-12-31T11:00:38.121Z,192.5
2018-12-31T11:01:38.172Z,192.5
2018-12-31T11:02:38.145Z,192.5
2018-12-31T11:03:38.080Z,192.5
2018-12-31T11:04:38.076Z,192.5
2018-12-31T11:05:38.082Z,192.5
2018-12-31T11:06:38.089Z,192.5
2018-12-31T11:07:38.085Z,192.5
2018-12-31T11:08:38.143Z,192.5
2018-12-31T11:09:38.055Z,192.5
2018-12-31T11:10:38.055Z,192.5
2018-12-31T11:11:38.062Z,192.5
2018-12-31T11:12:38.079Z,192.5
2018-12-31T11:13:38.143Z,192.5
2018-12-31T11:14:38.130Z,192.5
2018-12-31T11:15:38.099Z,192.5
2018-12-31T11:16:38.035Z,192.5
2018-12-31T11:17:38.081Z,192.5
2018-12-31T11:18:38.297Z,192.5
2018-12-31T11:19:38.084Z,192.5
2018-12-31T11:20:38.030Z,203.9
2018-12-31T11:21:38.014Z,209.9
2018-12-31T11:22:38.057Z,212.6
2018-12-31T11:23:38.142Z,213.9
2018-12-31T11:24:38.111Z,214.5
2018-12-31T11:25:40.081Z,214.8
2018-12-31T11:26:38.120Z,214.9
2018-12-31T11:27:38.070Z,214.9
2018-12-31T11:28:38.120Z,215
2018-12-31T11:29:38.076Z,215
2018-12-31T11:30:38.277Z,215
2018-12-31T11:31:38.021Z,215
2018-12-31T11:32:38.036Z,215
2018-12-31T11:33:38.082Z,215
2018-12-31T11:34:38.047Z,215
2018-12-31T11:35:38.120Z,215
2018-12-31T11:36:38.113Z,215
2018-12-31T11:37:38.485Z,215
2018-12-31T11:38:38.103Z,215
2018-12-31T11:39:38.056Z,215
2018-12-31T11:40:38.096Z,215
2018-12-31T11:41:38.082Z,215
2018-12-31T11:42:38.074Z,215
2018-12-31T11:43:38.184Z,215
2018-12-31T11:44:38.087Z,215
2018-12-31T11:45:38.085Z,215
2018-12-31T11:46:38.104Z,215
2018-12-31T11:47:38.032Z,215
2018-12-31T11:48:38.082Z,215
2018-12-31T11:49:38.053Z,215
2018-12-31T11:50:38.076Z,215
2018-12-31T11:51:38.072Z,215
2018-12-31T11:52:38.054Z,215
2018-12-31T11:53:38.061Z,215
2018-12-31T11:54:39.300Z,215
2018-12-31T11:55:38.062Z,215
2018-12-31T11:56:38.052Z,215
2018-12-31T11:57:38.025Z,215
2018-12-31T11:58:38.075Z,215
2018-12-31T11:59:38.071Z,215
2018-12-31T12:00:38.064Z,215
2018-12-31T12:01:38.126Z,215
2018-12-31T12:02:38.008Z,215
2018-12-31T12:03:38.058Z,215
2018-12-31T12:04:37.982Z,215
2018-12-31T12:05:38.048Z,215
2018-12-31T12:06:38.086Z,215
2018-12-31T12:07:38.116Z,215
2018-12-31T12:08:38.084Z,215
2018-12-31T12:09:47.985Z,215
2018-12-31T12:10:38.089Z,216.4
2018-12-31T12:11:38.073Z,215.7
2018-12-31T12:12:38.095Z,215.3
2018-12-31T12:13:38.190Z,215.1
2018-12-31T12:14:38.064Z,215.1
2018-12-31T12:15:38.060Z,215
2018-12-31T12:16:38.428Z,215
2018-12-31T12:17:38.095Z,215
2018-12-31T12:18:38.139Z,215
2018-12-31T12:19:38.072Z,215
2018-12-31T12:20:38.019Z,215
2018-12-31T12:21:38.049Z,215
2018-12-31T12:22:38.072Z,215
2018-12-31T12:23:38.108Z,215
2018-12-31T12:24:38.624Z,215
2018-12-31T12:25:38.125Z,215
2018-12-31T12:26:38.077Z,215
2018-12-31T12:27:37.976Z,215
2018-12-31T12:28:38.123Z,215
2018-12-31T12:29:38.070Z,215
2018-12-31T12:30:38.121Z,215
2018-12-31T12:31:38.015Z,215
2018-12-31T12:32:38.139Z,215
2018-12-31T12:33:39.660Z,215
2018-12-31T12:34:38.068Z,215
2018-12-31T12:35:38.041Z,215
2018-12-31T12:36:38.042Z,215
2018-12-31T12:37:38.028Z,215
2018-12-31T12:38:38.075Z,215
2018-12-31T12:39:38.095Z,215
2018-12-31T12:40:38.038Z,215
2018-12-31T12:41:38.063Z,215
2018-12-31T12:42:38.806Z,215
2018-12-31T12:43:38.080Z,215
2018-12-31T12:44:38.117Z,215
2018-12-31T12:45:38.057Z,215
2018-12-31T12:46:38.057Z,215
2018-12-31T12:47:38.032Z,215
2018-12-31T12:48:37.982Z,215
2018-12-31T12:49:38.149Z,215
2018-12-31T12:50:38.106Z,215
2018-12-31T12:51:38.979Z,215
2018-12-31T12:52:38.101Z,215
2018-12-31T12:53:38.010Z,215
2018-12-31T12:54:38.066Z,215
2018-12-31T12:55:38.080Z,215
2018-12-31T12:56:38.119Z,215
2018-12-31T12:57:38.080Z,215
2018-12-31T12:58:39.886Z,215
2018-12-31T12:59:38.046Z,215
2018-12-31T13:00:38.601Z,215
2018-12-31T13:01:38.050Z,215
2018-12-31T13:02:38.099Z,215
2018-12-31T13:03:38.094Z,215
2018-12-31T13:04:38.013Z,215